createdAt,value
2022-10-25T00:01:28.351Z,1.15
2022-10-25T00:03:55.321Z,1.80
2022-10-25T00:06:21.779Z,1.65
2022-10-25T00:08:48.216Z,1.60
2022-10-25T00:11:20.782Z,1.73
2022-10-25T00:13:50.913Z,1.25
2022-10-25T00:16:19.051Z,2.03
2022-10-25T00:18:45.540Z,1.65
2022-10-25T00:21:11.825Z,1.15
2022-10-25T00:23:38.084Z,1.35
2022-10-25T00:26:05.272Z,1.30
2022-10-25T00:28:31.869Z,1.52
2022-10-25T00:31:02.074Z,1.55
2022-10-25T00:33:32.083Z,1.77
2022-10-25T00:36:12.276Z,1.60
2022-10-25T00:38:39.029Z,1.80
2022-10-25T00:41:06.098Z,1.63
2022-10-25T00:48:30.775Z,2.08
2022-10-25T00:50:57.256Z,1.83
2022-10-25T00:53:27.324Z,1.65
2022-10-25T00:55:59.604Z,1.40
2022-10-25T00:58:28.512Z,1.98
2022-10-25T01:00:56.540Z,2.10
2022-10-25T01:03:23.757Z,1.45
2022-10-25T01:05:51.430Z,1.42
2022-10-25T01:08:19.710Z,1.60
2022-10-25T01:10:47.436Z,2.03
2022-10-25T01:13:13.990Z,2.78
2022-10-25T01:15:52.209Z,2.15
2022-10-25T01:18:22.629Z,1.48
2022-10-25T01:20:48.882Z,2.63
2022-10-25T01:23:30.149Z,1.67
2022-10-25T01:26:15.361Z,2.00
2022-10-25T01:29:00.420Z,2.08
2022-10-25T01:31:39.980Z,2.42
2022-10-25T01:34:10.926Z,1.90
2022-10-25T01:36:41.897Z,1.50
2022-10-25T01:39:10.916Z,1.38
2022-10-25T01:41:57.412Z,2.00
2022-10-25T01:44:33.918Z,1.58
2022-10-25T01:47:05.270Z,1.67
2022-10-25T01:49:31.480Z,1.83
2022-10-25T01:51:57.718Z,2.03
2022-10-25T01:54:27.508Z,1.50
2022-10-25T01:56:53.762Z,1.80
2022-10-25T01:59:34.859Z,1.50
2022-10-25T02:02:01.154Z,1.83
2022-10-25T02:04:30.422Z,1.50
2022-10-25T02:07:04.429Z,1.88
2022-10-25T02:09:36.572Z,2.05
2022-10-25T02:12:04.811Z,1.50
2022-10-25T02:14:40.379Z,2.47
2022-10-25T02:17:14.841Z,1.70
2022-10-25T02:19:43.341Z,2.08
2022-10-25T02:22:10.960Z,1.65
2022-10-25T02:24:37.495Z,1.80
2022-10-25T02:27:04.922Z,2.00
2022-10-25T02:29:32.698Z,1.70
2022-10-25T02:31:59.284Z,1.80
2022-10-25T02:34:25.638Z,2.40
2022-10-25T02:36:53.195Z,2.35
2022-10-25T02:39:20.394Z,1.83
2022-10-25T02:41:46.801Z,1.95
2022-10-25T02:44:13.348Z,2.17
2022-10-25T02:46:39.689Z,1.80
2022-10-25T02:49:05.970Z,2.00
2022-10-25T02:51:32.278Z,1.75
2022-10-25T02:53:58.595Z,1.85
2022-10-25T02:56:25.009Z,2.08
2022-10-25T02:58:52.348Z,2.47
2022-10-25T03:01:19.572Z,2.38
2022-10-25T03:03:45.934Z,2.08
2022-10-25T03:06:12.577Z,2.50
2022-10-25T03:08:39.389Z,1.77
2022-10-25T03:11:06.482Z,2.20
2022-10-25T03:13:32.831Z,2.65
2022-10-25T03:15:59.590Z,2.20
2022-10-25T03:18:25.986Z,2.50
2022-10-25T03:20:52.278Z,2.97
2022-10-25T03:23:18.671Z,2.15
2022-10-25T03:25:45.010Z,2.83
2022-10-25T03:28:11.273Z,2.38
2022-10-25T03:30:37.578Z,2.40
2022-10-25T03:33:03.929Z,2.38
2022-10-25T03:35:30.148Z,2.10
2022-10-25T03:37:56.369Z,2.75
2022-10-25T03:40:22.713Z,1.88
2022-10-25T03:42:49.122Z,2.25
2022-10-25T03:45:15.417Z,3.38
2022-10-25T03:47:41.717Z,2.47
2022-10-25T03:50:08.332Z,2.67
2022-10-25T03:52:34.868Z,2.80
2022-10-25T03:55:01.099Z,2.00
2022-10-25T03:57:27.361Z,2.85
2022-10-25T03:59:53.621Z,2.40
2022-10-25T04:02:19.870Z,2.72
2022-10-25T04:04:46.089Z,2.55
2022-10-25T04:07:12.353Z,2.30
2022-10-25T04:09:38.574Z,2.80
2022-10-25T04:12:04.951Z,3.60
2022-10-25T04:14:31.175Z,3.40
2022-10-25T04:16:57.559Z,3.75
2022-10-25T04:19:23.810Z,3.10
2022-10-25T04:21:50.048Z,4.13
2022-10-25T04:24:16.687Z,3.90
2022-10-25T04:26:43.202Z,3.13
2022-10-25T04:29:10.276Z,2.67
2022-10-25T04:34:02.733Z,2.65
2022-10-25T04:36:31.962Z,3.33
2022-10-25T04:38:58.196Z,3.22
2022-10-25T04:41:24.562Z,3.47
2022-10-25T04:43:51.044Z,3.45
2022-10-25T04:46:17.320Z,3.83
2022-10-25T04:48:43.626Z,3.45
2022-10-25T04:51:10.758Z,3.17
2022-10-25T04:53:37.014Z,2.95
2022-10-25T04:56:09.370Z,2.63
2022-10-25T04:58:36.126Z,2.72
2022-10-25T05:01:03.961Z,2.92
2022-10-25T05:03:30.505Z,2.90
2022-10-25T05:06:04.543Z,3.60
2022-10-25T05:08:30.802Z,3.60
2022-10-25T05:10:57.083Z,3.72
2022-10-25T05:13:23.337Z,4.82
2022-10-25T05:15:56.221Z,3.33
2022-10-25T05:18:22.641Z,3.95
2022-10-25T05:20:52.708Z,3.45
2022-10-25T05:23:19.086Z,4.38
2022-10-25T05:25:45.310Z,3.80
2022-10-25T05:28:11.586Z,3.60
2022-10-25T05:30:44.030Z,8.88
2022-10-25T05:33:10.553Z,5.90
2022-10-25T05:35:36.822Z,4.70
2022-10-25T05:38:03.061Z,3.38
2022-10-25T05:40:29.296Z,6.22
2022-10-25T05:42:55.622Z,4.50
2022-10-25T05:45:21.857Z,5.65
2022-10-25T05:47:48.089Z,6.93
2022-10-25T05:50:14.365Z,6.60
2022-10-25T05:52:43.798Z,8.30
2022-10-25T05:55:10.627Z,11.05
2022-10-25T05:57:36.883Z,10.77
2022-10-25T06:00:03.899Z,8.85
2022-10-25T06:04:56.515Z,6.40
2022-10-25T06:07:22.795Z,4.68
2022-10-25T06:09:49.084Z,10.60
2022-10-25T06:12:15.304Z,11.95
2022-10-25T06:14:41.563Z,9.85
2022-10-25T06:17:07.800Z,6.20
2022-10-25T06:19:34.107Z,7.65
2022-10-25T06:22:01.852Z,8.30
2022-10-25T06:24:28.137Z,6.35
2022-10-25T06:26:54.486Z,5.10
2022-10-25T06:29:20.840Z,4.82
2022-10-25T06:31:47.098Z,4.07
2022-10-25T06:34:13.351Z,3.88
2022-10-25T06:36:39.589Z,3.40
2022-10-25T06:39:07.077Z,4.00
2022-10-25T06:41:33.727Z,3.63
2022-10-25T06:44:05.355Z,7.03
2022-10-25T06:46:34.246Z,3.92
2022-10-25T06:49:01.631Z,4.68
2022-10-25T06:51:28.765Z,4.30
2022-10-25T06:53:57.105Z,4.20
2022-10-25T06:56:23.966Z,4.30
2022-10-25T06:58:50.243Z,5.07
2022-10-25T07:01:17.702Z,3.85
2022-10-25T07:03:44.261Z,3.53
2022-10-25T07:06:11.623Z,5.47
2022-10-25T07:08:39.020Z,4.45
2022-10-25T07:11:05.652Z,4.03
2022-10-25T07:13:32.823Z,3.20
2022-10-25T07:16:05.781Z,3.92
2022-10-25T07:18:32.431Z,3.53
2022-10-25T07:21:02.398Z,3.05
2022-10-25T07:23:28.952Z,3.35
2022-10-25T07:25:55.230Z,4.15
2022-10-25T07:28:21.829Z,3.50
2022-10-25T07:30:48.461Z,3.53
2022-10-25T07:33:15.438Z,3.30
2022-10-25T07:38:18.577Z,2.80
2022-10-25T07:40:44.877Z,2.17
2022-10-25T07:43:11.091Z,3.10
2022-10-25T07:45:38.466Z,2.95
2022-10-25T07:48:05.102Z,2.80
2022-10-25T07:50:31.347Z,4.65
2022-10-25T07:52:58.943Z,2.60
2022-10-25T07:55:25.214Z,2.28
2022-10-25T07:57:51.424Z,3.30
2022-10-25T08:00:17.755Z,2.47
2022-10-25T08:02:44.094Z,2.60
2022-10-25T08:05:10.500Z,2.53
2022-10-25T08:07:36.754Z,2.78
2022-10-25T08:10:03.133Z,2.35
2022-10-25T08:12:29.416Z,5.85
2022-10-25T08:14:55.701Z,3.53
2022-10-25T08:17:21.946Z,2.60
2022-10-25T08:19:51.200Z,3.10
2022-10-25T08:22:17.738Z,2.97
2022-10-25T08:24:44.037Z,3.15
2022-10-25T08:27:10.292Z,2.65
2022-10-25T08:29:36.630Z,2.92
2022-10-25T08:32:02.906Z,2.70
2022-10-25T08:34:32.323Z,3.40
2022-10-25T08:36:59.546Z,2.20
2022-10-25T08:39:25.756Z,1.90
2022-10-25T08:41:56.058Z,2.10
2022-10-25T08:44:22.352Z,2.00
2022-10-25T08:47:03.077Z,2.03
2022-10-25T08:49:37.771Z,2.28
2022-10-25T08:52:05.773Z,2.15
2022-10-25T08:54:37.558Z,2.30
2022-10-25T08:57:24.219Z,2.45
2022-10-25T08:59:52.119Z,2.42
2022-10-25T09:02:21.292Z,1.95
2022-10-25T09:04:47.842Z,2.15
2022-10-25T09:07:29.075Z,1.98
2022-10-25T09:10:09.007Z,1.98
2022-10-25T09:12:40.815Z,1.77
2022-10-25T09:15:07.134Z,1.85
2022-10-25T09:17:46.240Z,2.20
2022-10-25T09:20:20.418Z,5.45
2022-10-25T09:22:49.706Z,3.20
2022-10-25T09:25:29.947Z,2.03
2022-10-25T09:28:00.297Z,2.08
2022-10-25T09:30:27.891Z,1.95
2022-10-25T09:32:56.666Z,2.42
2022-10-25T09:35:25.861Z,1.92
2022-10-25T09:37:53.492Z,1.83
2022-10-25T09:40:22.717Z,2.30
2022-10-25T09:43:01.747Z,2.20
2022-10-25T09:45:37.314Z,1.90
2022-10-25T09:48:13.415Z,1.98
2022-10-25T09:50:58.421Z,2.42
2022-10-25T09:53:24.691Z,2.08
2022-10-25T09:55:50.914Z,2.55
2022-10-25T09:58:33.710Z,2.40
2022-10-25T10:01:05.745Z,2.13
2022-10-25T10:03:33.261Z,2.17
2022-10-25T10:06:01.382Z,1.48
2022-10-25T10:08:28.393Z,1.77
2022-10-25T10:10:54.960Z,1.98
2022-10-25T10:13:42.680Z,1.73
2022-10-25T10:16:17.990Z,2.15
2022-10-25T10:18:44.512Z,1.98
2022-10-25T10:21:10.745Z,1.90
2022-10-25T10:23:42.812Z,2.58
2022-10-25T10:26:29.571Z,2.05
2022-10-25T10:29:07.908Z,1.42
2022-10-25T10:31:39.695Z,1.95
2022-10-25T10:34:08.349Z,1.40
2022-10-25T10:36:34.973Z,1.58
2022-10-25T10:39:33.582Z,1.50
2022-10-25T10:44:34.626Z,2.13
2022-10-25T10:47:02.003Z,1.05
2022-10-25T10:49:34.958Z,1.40
2022-10-25T10:52:02.902Z,1.73
2022-10-25T10:54:46.058Z,1.27
2022-10-25T10:57:21.632Z,1.35
2022-10-25T10:59:55.131Z,1.40
2022-10-25T11:02:23.556Z,1.33
2022-10-25T11:04:51.160Z,2.40
2022-10-25T11:07:31.393Z,1.85
2022-10-25T11:10:12.808Z,1.17
2022-10-25T11:12:41.274Z,1.08
2022-10-25T11:15:10.848Z,1.40
2022-10-25T11:17:39.554Z,1.75
2022-10-25T11:20:08.957Z,1.50
2022-10-25T11:22:51.110Z,1.98
2022-10-25T11:25:33.771Z,1.30
2022-10-25T11:28:05.989Z,1.50
2022-10-25T11:30:55.583Z,1.77
2022-10-25T11:33:21.984Z,1.60
2022-10-25T11:36:05.359Z,1.77
2022-10-25T11:38:50.202Z,1.67
2022-10-25T11:41:16.418Z,1.40
2022-10-25T11:43:48.704Z,1.27
2022-10-25T11:46:22.346Z,1.88
2022-10-25T11:49:00.990Z,1.60
2022-10-25T11:51:27.189Z,1.10
2022-10-25T11:53:59.545Z,1.50
2022-10-25T11:56:44.462Z,2.10
2022-10-25T11:59:25.164Z,2.10
2022-10-25T12:02:00.412Z,1.30
2022-10-25T12:04:35.813Z,1.90
2022-10-25T12:07:19.119Z,1.85
2022-10-25T12:09:50.309Z,2.42
2022-10-25T12:12:18.919Z,1.70
2022-10-25T12:14:50.173Z,1.40
2022-10-25T12:17:24.449Z,1.70
2022-10-25T12:19:51.723Z,1.70
2022-10-25T12:22:23.344Z,1.60
2022-10-25T12:25:00.150Z,2.08
2022-10-25T12:30:02.957Z,2.10
2022-10-25T12:34:57.523Z,1.45
2022-10-25T12:37:34.913Z,1.52
2022-10-25T12:40:01.250Z,1.65
2022-10-25T12:42:33.483Z,1.60
2022-10-25T12:45:15.058Z,1.55
2022-10-25T12:47:48.231Z,2.00
2022-10-25T12:50:33.086Z,1.52
2022-10-25T12:52:59.338Z,1.30
2022-10-25T12:55:28.585Z,1.40
2022-10-25T12:58:10.309Z,1.85
2022-10-25T13:00:39.910Z,1.73
2022-10-25T13:03:19.720Z,2.47
2022-10-25T13:05:58.042Z,1.92
2022-10-25T13:08:25.723Z,1.50
2022-10-25T13:11:05.877Z,1.75
2022-10-25T13:13:53.578Z,1.55
2022-10-25T13:16:28.367Z,1.73
2022-10-25T13:19:14.664Z,1.75
2022-10-25T13:21:55.063Z,1.40
2022-10-25T13:24:36.642Z,1.27
2022-10-25T13:27:09.076Z,1.65
2022-10-25T13:29:54.132Z,1.42
2022-10-25T13:32:20.613Z,1.70
2022-10-25T13:34:47.469Z,1.10
2022-10-25T13:37:31.723Z,2.30
2022-10-25T13:39:59.773Z,1.50
2022-10-25T13:42:33.190Z,1.40
2022-10-25T13:44:59.420Z,1.65
2022-10-25T13:47:28.454Z,1.77
2022-10-25T13:49:54.862Z,1.50
2022-10-25T13:52:23.360Z,1.60
2022-10-25T13:54:51.953Z,1.30
2022-10-25T13:57:48.318Z,1.23
2022-10-25T14:00:23.691Z,1.50
2022-10-25T14:03:08.386Z,1.58
2022-10-25T14:06:02.369Z,1.92
2022-10-25T14:08:36.434Z,1.58
2022-10-25T14:11:06.095Z,1.63
2022-10-25T14:13:48.171Z,1.80
2022-10-25T14:16:26.479Z,1.02
2022-10-25T14:18:53.778Z,1.48
2022-10-25T14:21:20.388Z,1.40
2022-10-25T14:23:48.767Z,1.83
2022-10-25T14:26:16.048Z,1.85
2022-10-25T14:28:42.735Z,1.67
2022-10-25T14:31:12.477Z,1.65
2022-10-25T14:33:42.107Z,1.80
2022-10-25T14:36:10.896Z,1.58
2022-10-25T14:38:48.532Z,1.52
2022-10-25T14:41:14.759Z,1.70
2022-10-25T14:43:41.242Z,2.28
2022-10-25T14:46:10.268Z,1.63
2022-10-25T14:48:36.646Z,1.45
2022-10-25T14:51:05.454Z,1.75
2022-10-25T14:53:31.951Z,1.75
2022-10-25T14:55:59.435Z,1.45
2022-10-25T14:58:26.492Z,1.77
2022-10-25T15:00:56.789Z,1.60
2022-10-25T15:03:23.402Z,1.20
2022-10-25T15:05:51.126Z,1.40
2022-10-25T15:08:19.615Z,1.80
2022-10-25T15:10:48.772Z,2.00
2022-10-25T15:13:20.998Z,2.15
2022-10-25T15:15:51.468Z,2.42
2022-10-25T15:18:29.473Z,2.10
2022-10-25T15:21:05.856Z,1.70
2022-10-25T15:23:32.260Z,1.67
2022-10-25T15:25:58.760Z,1.80
2022-10-25T15:28:25.062Z,2.38
2022-10-25T15:30:51.291Z,1.38
2022-10-25T15:33:18.943Z,1.90
2022-10-25T15:35:47.626Z,7.10
2022-10-25T15:38:13.954Z,2.38
2022-10-25T15:40:41.681Z,4.00
2022-10-25T15:43:07.896Z,2.22
2022-10-25T15:45:34.305Z,2.40
2022-10-25T15:48:00.659Z,3.53
2022-10-25T15:50:27.084Z,12.95
2022-10-25T15:52:53.866Z,2.83
2022-10-25T15:55:21.890Z,8.80
2022-10-25T15:57:48.629Z,2.72
2022-10-25T16:00:16.078Z,4.00
2022-10-25T16:02:42.334Z,3.35
2022-10-25T16:05:28.895Z,3.13
2022-10-25T16:07:55.212Z,5.28
2022-10-25T16:10:22.469Z,4.07
2022-10-25T16:12:50.515Z,5.60
2022-10-25T16:15:17.681Z,5.13
2022-10-25T16:17:44.691Z,7.45
2022-10-25T16:22:37.084Z,4.68
2022-10-25T16:25:03.352Z,3.75
2022-10-25T16:27:29.682Z,4.80
2022-10-25T16:29:56.063Z,3.65
2022-10-25T16:32:22.342Z,2.92
2022-10-25T16:34:48.641Z,3.55
2022-10-25T16:37:14.874Z,2.85
2022-10-25T16:39:41.137Z,2.35
2022-10-25T16:42:26.048Z,1.95
2022-10-25T16:44:52.282Z,2.20
2022-10-25T16:47:21.274Z,1.80
2022-10-25T16:49:47.714Z,2.10
2022-10-25T16:52:14.131Z,2.00
2022-10-25T16:54:40.391Z,2.28
2022-10-25T16:57:07.336Z,2.40
2022-10-25T17:01:59.838Z,1.70
2022-10-25T17:04:26.771Z,2.13
2022-10-25T17:06:53.298Z,1.98
2022-10-25T17:09:19.605Z,2.35
2022-10-25T17:11:46.058Z,2.53
2022-10-25T17:14:13.710Z,3.08
2022-10-25T17:16:40.613Z,2.70
2022-10-25T17:19:06.870Z,3.08
2022-10-25T17:21:35.654Z,3.40
2022-10-25T17:24:02.273Z,2.50
2022-10-25T17:26:28.555Z,2.03
2022-10-25T17:28:54.804Z,2.08
2022-10-25T17:31:21.057Z,2.17
2022-10-25T17:33:47.333Z,2.40
2022-10-25T17:36:14.773Z,2.67
2022-10-25T17:38:41.297Z,1.88
2022-10-25T17:41:07.752Z,1.73
2022-10-25T17:43:34.421Z,2.08
2022-10-25T17:46:01.529Z,6.22
2022-10-25T17:48:28.044Z,4.18
2022-10-25T17:50:54.364Z,3.58
2022-10-25T17:53:20.837Z,3.88
2022-10-25T17:55:47.108Z,2.90
2022-10-25T17:58:13.401Z,2.28
2022-10-25T18:00:39.658Z,2.80
2022-10-25T18:03:06.035Z,2.78
2022-10-25T18:05:32.385Z,2.42
2022-10-25T18:07:58.786Z,3.75
2022-10-25T18:10:25.152Z,3.83
2022-10-25T18:12:51.586Z,10.45
2022-10-25T18:15:18.277Z,14.13
2022-10-25T18:17:46.746Z,19.00
2022-10-25T18:20:13.529Z,12.32
2022-10-25T18:22:39.777Z,182.80
2022-10-25T18:25:06.363Z,160.20
2022-10-25T18:27:32.595Z,73.18
2022-10-25T18:29:58.848Z,73.40
2022-10-25T18:32:32.134Z,45.22
2022-10-25T18:35:01.536Z,71.65
2022-10-25T18:37:27.903Z,131.77
2022-10-25T18:39:54.479Z,51.42
2022-10-25T18:42:20.803Z,11.32
2022-10-25T18:44:47.063Z,3.55
2022-10-25T18:47:13.311Z,14.57
2022-10-25T18:49:39.621Z,11.35
2022-10-25T18:52:06.061Z,4.82
2022-10-25T18:54:32.276Z,14.40
2022-10-25T18:56:58.515Z,3.30
2022-10-25T18:59:24.799Z,3.72
2022-10-25T19:01:51.217Z,4.25
2022-10-25T19:04:17.541Z,10.90
2022-10-25T19:06:44.315Z,15.85
2022-10-25T19:09:10.701Z,4.35
2022-10-25T19:11:37.085Z,3.20
2022-10-25T19:14:04.107Z,8.45
2022-10-25T19:18:56.561Z,5.13
2022-10-25T19:21:22.844Z,4.97
2022-10-25T19:23:49.220Z,5.78
2022-10-25T19:26:19.414Z,3.20
2022-10-25T19:28:46.013Z,2.90
2022-10-25T19:31:13.385Z,4.20
2022-10-25T19:33:39.983Z,3.85
2022-10-25T19:36:07.784Z,3.70
2022-10-25T19:38:37.711Z,10.73
2022-10-25T19:41:05.315Z,4.88
2022-10-25T19:43:32.116Z,3.45
2022-10-25T19:45:59.681Z,3.13
2022-10-25T19:48:26.151Z,3.13
2022-10-25T19:50:52.633Z,4.07
2022-10-25T19:53:22.076Z,4.25
2022-10-25T19:55:59.094Z,5.13
2022-10-25T19:58:25.402Z,4.75
2022-10-25T20:00:59.623Z,4.05
2022-10-25T20:03:25.881Z,4.65
2022-10-25T20:05:59.423Z,3.92
2022-10-25T20:08:25.811Z,4.38
2022-10-25T20:10:52.036Z,5.18
2022-10-25T20:13:18.436Z,4.80
2022-10-25T20:15:55.458Z,4.80
2022-10-25T20:18:23.006Z,5.15
2022-10-25T20:20:53.051Z,3.97
2022-10-25T20:23:20.137Z,5.13
2022-10-25T20:25:46.451Z,4.38
2022-10-25T20:28:12.958Z,4.20
2022-10-25T20:30:39.568Z,4.38
2022-10-25T20:33:06.682Z,4.85
2022-10-25T20:35:39.871Z,5.10
2022-10-25T20:38:06.437Z,4.75
2022-10-25T20:40:32.824Z,4.72
2022-10-25T20:42:59.123Z,4.88
2022-10-25T20:45:26.232Z,5.00
2022-10-25T20:47:55.912Z,5.65
2022-10-25T20:50:22.842Z,5.18
2022-10-25T20:53:09.413Z,5.75
2022-10-25T20:55:35.448Z,6.13
2022-10-25T20:58:01.692Z,5.57
2022-10-25T21:00:27.918Z,5.40
2022-10-25T21:02:54.160Z,4.88
2022-10-25T21:05:20.394Z,6.45
2022-10-25T21:07:47.087Z,5.75
2022-10-25T21:10:13.479Z,5.40
2022-10-25T21:12:39.716Z,5.20
2022-10-25T21:15:09.493Z,5.13
2022-10-25T21:17:38.259Z,5.22
2022-10-25T21:20:04.719Z,5.90
2022-10-25T21:22:31.063Z,6.00
2022-10-25T21:24:57.408Z,5.45
2022-10-25T21:27:23.734Z,5.65
2022-10-25T21:29:50.033Z,5.13
2022-10-25T21:32:16.358Z,5.18
2022-10-25T21:34:42.628Z,5.18
2022-10-25T21:37:08.882Z,5.40
2022-10-25T21:39:35.166Z,4.95
2022-10-25T21:42:01.495Z,5.38
2022-10-25T21:44:27.746Z,4.90
2022-10-25T21:46:54.238Z,4.78
2022-10-25T21:49:20.703Z,4.45
2022-10-25T21:51:47.236Z,5.80
2022-10-25T21:54:14.010Z,5.40
2022-10-25T21:56:40.263Z,4.20
2022-10-25T21:59:07.010Z,4.78
2022-10-25T22:01:33.545Z,4.72
2022-10-25T22:04:00.025Z,5.10
2022-10-25T22:06:27.182Z,4.10
2022-10-25T22:08:54.379Z,4.50
2022-10-25T22:11:22.007Z,4.40
2022-10-25T22:13:48.904Z,5.00
2022-10-25T22:16:16.487Z,4.85
2022-10-25T22:18:43.061Z,5.28
2022-10-25T22:21:10.825Z,4.45
2022-10-25T22:23:37.985Z,3.53
2022-10-25T22:26:14.917Z,5.05
2022-10-25T22:28:41.597Z,4.78
2022-10-25T22:31:12.030Z,5.50
2022-10-25T22:33:39.149Z,5.57
2022-10-25T22:36:06.676Z,5.78
2022-10-25T22:38:33.013Z,4.68
2022-10-25T22:41:00.096Z,5.07
2022-10-25T22:43:26.708Z,4.53
2022-10-25T22:45:53.234Z,4.85
2022-10-25T22:48:19.668Z,5.20
2022-10-25T22:50:53.333Z,4.38
2022-10-25T22:53:20.188Z,4.45
2022-10-25T22:55:56.726Z,4.95
2022-10-25T22:58:22.980Z,8.38
2022-10-25T23:00:49.274Z,9.35
2022-10-25T23:03:15.977Z,11.55
2022-10-25T23:05:42.245Z,14.07
2022-10-25T23:08:08.483Z,8.95
2022-10-25T23:10:34.758Z,5.70
2022-10-25T23:13:00.988Z,4.75
2022-10-25T23:15:27.244Z,3.90
2022-10-25T23:17:53.453Z,4.55
2022-10-25T23:20:19.693Z,4.07
2022-10-25T23:22:46.058Z,5.35
2022-10-25T23:25:12.450Z,3.88
2022-10-25T23:27:38.684Z,4.50
2022-10-25T23:30:07.631Z,3.78
2022-10-25T23:32:36.032Z,4.32
2022-10-25T23:35:02.260Z,3.75
2022-10-25T23:37:28.489Z,4.45
2022-10-25T23:39:54.757Z,4.53
2022-10-25T23:42:20.984Z,4.97
2022-10-25T23:44:47.225Z,4.60
2022-10-25T23:47:13.492Z,4.18
2022-10-25T23:49:39.746Z,3.58
2022-10-25T23:52:05.989Z,3.95
2022-10-25T23:54:32.256Z,3.88
2022-10-25T23:56:58.470Z,3.33
